Time;durP1;ratioP1;P1;durP2;ratioP2;P2;SDS_P1;SDS_P2;PMS_P1;PMS_P2;Temp;Humidity;BMP_temperature;BMP_pressure;BME280_temperature;BME280_humidity;BME280_pressure;Samples;Min_cycle;Max_cycle;Signal;HPM_P1;HPM_P2
2023/01/19 00:00:17;;;;;;;7.95;2.28;;;2.90;99.90;;;;;;4183832;28;20052;-82
2023/01/19 00:02:19;;;;;;;9.10;2.88;;;2.90;99.90;;;;;;4185509;28;20041;-82
2023/01/19 00:04:25;;;;;;;3.60;2.17;;;3.30;99.90;;;;;;4184128;28;20111;-82
2023/01/19 00:06:26;;;;;;;4.78;1.90;;;3.10;99.90;;;;;;4167292;28;20061;-82
2023/01/19 00:08:28;;;;;;;5.45;2.50;;;2.80;99.90;;;;;;4185546;28;20501;-82
2023/01/19 00:10:29;;;;;;;6.70;2.58;;;3.20;99.90;;;;;;4183294;28;20433;-82
2023/01/19 00:12:30;;;;;;;3.22;1.83;;;4.30;99.90;;;;;;4184716;28;20053;-81
2023/01/19 00:14:31;;;;;;;4.80;1.60;;;3.00;99.90;;;;;;4185193;28;20071;-81
2023/01/19 00:16:32;;;;;;;7.05;2.03;;;4.20;99.90;;;;;;4183543;28;20037;-81
2023/01/19 00:18:34;;;;;;;3.58;1.63;;;2.50;99.90;;;;;;4184461;28;20409;-81
2023/01/19 00:20:38;;;;;;;2.17;1.27;;;2.80;99.90;;;;;;4168216;28;20127;-81
2023/01/19 00:22:39;;;;;;;7.68;1.55;;;2.50;99.90;;;;;;4184192;28;20053;-81
2023/01/19 00:24:41;;;;;;;2.63;1.48;;;2.70;99.90;;;;;;4183976;28;20122;-81
2023/01/19 00:26:41;;;;;;;3.45;1.30;;;2.70;99.90;;;;;;4185283;28;20073;-81
2023/01/19 00:28:43;;;;;;;1.90;1.02;;;2.70;99.90;;;;;;4184042;28;20048;-81
2023/01/19 00:30:44;;;;;;;2.95;1.15;;;2.70;99.90;;;;;;4184617;28;20045;-82
2023/01/19 00:32:45;;;;;;;3.60;1.40;;;2.50;99.90;;;;;;4167772;28;20061;-81
2023/01/19 00:34:48;;;;;;;2.17;1.17;;;2.70;99.90;;;;;;4184994;28;20136;-81
2023/01/19 00:36:50;;;;;;;5.85;1.83;;;2.10;99.90;;;;;;4195831;28;20044;-81
2023/01/19 00:38:51;;;;;;;2.72;0.90;;;2.70;99.90;;;;;;4199735;28;20051;-81
2023/01/19 00:40:53;;;;;;;3.53;1.20;;;2.70;99.90;;;;;;4200225;28;20084;-82
2023/01/19 00:42:56;;;;;;;3.22;1.30;;;2.70;99.90;;;;;;4201584;28;20045;-82
2023/01/19 00:44:58;;;;;;;2.03;1.15;;;3.10;99.90;;;;;;4199911;28;20052;-80
2023/01/19 00:47:02;;;;;;;6.88;1.83;;;4.00;99.90;;;;;;4201063;28;20056;-80
2023/01/19 00:49:04;;;;;;;1.60;1.02;;;2.60;99.90;;;;;;4183746;28;20049;-81
2023/01/19 00:51:06;;;;;;;3.42;1.52;;;2.40;99.90;;;;;;4200659;28;20075;-81
2023/01/19 00:53:07;;;;;;;4.22;1.40;;;3.30;99.90;;;;;;4171428;28;20052;-82
2023/01/19 00:55:10;;;;;;;2.83;1.83;;;2.80;99.90;;;;;;4167325;28;20054;-82
2023/01/19 00:57:11;;;;;;;6.78;1.30;;;3.40;99.90;;;;;;4185430;28;20492;-81
2023/01/19 00:59:12;;;;;;;1.70;0.98;;;2.40;99.90;;;;;;4185309;28;20073;-81
2023/01/19 01:01:14;;;;;;;3.63;1.35;;;2.60;99.90;;;;;;4184872;28;20406;-81
2023/01/19 01:03:15;;;;;;;2.40;1.50;;;2.70;99.90;;;;;;4183754;28;20531;-81
2023/01/19 01:05:24;;;;;;;2.35;1.13;;;2.20;99.90;;;;;;4185639;28;20508;-81
2023/01/19 01:07:25;;;;;;;3.03;1.40;;;2.00;99.90;;;;;;4183712;28;20052;-81
2023/01/19 01:09:27;;;;;;;5.60;1.42;;;2.70;99.90;;;;;;4184019;28;20081;-81
2023/01/19 01:11:28;;;;;;;3.70;1.10;;;2.70;99.90;;;;;;4185330;28;20485;-81
2023/01/19 01:13:29;;;;;;;7.00;1.38;;;2.70;99.90;;;;;;4168300;28;20072;-81
2023/01/19 01:15:30;;;;;;;2.10;1.20;;;2.70;99.90;;;;;;4183474;28;20080;-81
2023/01/19 01:17:31;;;;;;;4.32;2.00;;;3.20;99.90;;;;;;4167542;28;20049;-83
2023/01/19 01:19:33;;;;;;;5.30;1.30;;;2.70;99.90;;;;;;4184925;28;20153;-82
2023/01/19 01:21:36;;;;;;;6.75;1.45;;;2.70;99.90;;;;;;4183678;28;20603;-81
2023/01/19 01:23:38;;;;;;;5.00;0.90;;;2.70;99.90;;;;;;4166462;28;20128;-81
2023/01/19 01:25:39;;;;;;;4.80;1.17;;;2.80;99.90;;;;;;4184211;28;20052;-81
2023/01/19 01:27:41;;;;;;;5.07;1.00;;;2.80;99.90;;;;;;4184769;28;20056;-81
2023/01/19 01:29:45;;;;;;;2.70;0.98;;;2.60;99.90;;;;;;4183457;28;20041;-81
2023/01/19 01:31:47;;;;;;;2.25;0.82;;;3.10;99.90;;;;;;4166603;28;20129;-81
2023/01/19 01:33:47;;;;;;;1.60;0.82;;;2.80;99.90;;;;;;4182934;28;20124;-81
2023/01/19 01:35:50;;;;;;;3.95;1.20;;;2.20;99.90;;;;;;4183403;28;20048;-81
2023/01/19 01:37:51;;;;;;;3.08;0.90;;;2.90;99.90;;;;;;4183201;28;20505;-81
2023/01/19 01:39:54;;;;;;;2.83;0.88;;;2.80;99.90;;;;;;4183462;28;20123;-83
2023/01/19 01:41:56;;;;;;;3.63;1.02;;;2.80;99.90;;;;;;4184487;28;20436;-81
2023/01/19 01:44:00;;;;;;;3.00;1.13;;;2.80;99.90;;;;;;4166443;28;20093;-81
2023/01/19 01:46:01;;;;;;;1.02;0.65;;;3.00;99.90;;;;;;4183469;28;20541;-81
2023/01/19 01:48:22;;;;;;;3.03;1.00;;;3.90;99.90;;;;;;4183254;28;20076;-81
2023/01/19 01:50:26;;;;;;;2.60;0.70;;;2.90;99.90;;;;;;4185375;28;20048;-81
2023/01/19 01:52:30;;;;;;;4.05;0.75;;;2.50;99.90;;;;;;4177228;28;20048;-81
2023/01/19 01:54:32;;;;;;;2.90;0.60;;;2.90;99.90;;;;;;4202648;28;20123;-81
2023/01/19 01:56:43;;;;;;;3.95;0.60;;;3.50;99.90;;;;;;4185743;28;20174;-81
2023/01/19 01:58:45;;;;;;;3.92;1.00;;;2.90;99.90;;;;;;4203925;28;20068;-81
2023/01/19 02:03:05;;;;;;;9.23;0.70;;;3.20;99.90;;;;;;4203620;28;20564;-81
2023/01/19 02:05:11;;;;;;;5.05;0.65;;;3.60;99.90;;;;;;4203230;28;20037;-81
2023/01/19 02:14:24;;;;;;;2.30;0.90;;;3.00;99.90;;;;;;4203463;28;20045;-81
2023/01/19 02:16:26;;;;;;;2.25;1.25;;;3.00;99.90;;;;;;4202260;28;20040;-81
2023/01/19 02:18:29;;;;;;;1.40;0.90;;;3.00;99.90;;;;;;4202642;28;20059;-81
2023/01/19 02:20:32;;;;;;;2.50;1.15;;;2.80;99.90;;;;;;4185680;28;20060;-82
2023/01/19 02:22:40;;;;;;;2.40;1.17;;;2.60;99.90;;;;;;4202207;28;20080;-82
2023/01/19 02:24:41;;;;;;;2.58;1.20;;;2.90;99.90;;;;;;4185343;28;20052;-81
2023/01/19 02:26:44;;;;;;;4.20;1.35;;;3.30;99.90;;;;;;4202385;28;20681;-81
2023/01/19 02:29:00;;;;;;;1.73;1.42;;;2.90;99.90;;;;;;4203321;28;20087;-81
2023/01/19 02:31:02;;;;;;;1.67;1.50;;;2.80;99.90;;;;;;4203568;28;20051;-81
2023/01/19 02:33:06;;;;;;;2.10;1.33;;;2.80;99.90;;;;;;4202042;28;20504;-81
2023/01/19 02:35:07;;;;;;;4.05;1.85;;;2.80;99.90;;;;;;4201541;28;20181;-81
2023/01/19 02:37:13;;;;;;;5.57;1.70;;;2.80;99.90;;;;;;4174411;28;20050;-81
2023/01/19 02:39:18;;;;;;;2.55;1.63;;;2.80;99.90;;;;;;4186032;28;20051;-81
2023/01/19 02:41:23;;;;;;;4.45;1.38;;;2.70;99.90;;;;;;4169388;28;20051;-81
2023/01/19 02:43:28;;;;;;;3.63;1.50;;;2.70;99.90;;;;;;4185414;28;20056;-81
2023/01/19 02:45:30;;;;;;;2.10;1.55;;;4.10;99.90;;;;;;4185852;28;20979;-81
2023/01/19 02:47:39;;;;;;;3.15;1.45;;;2.70;99.90;;;;;;4169670;28;20049;-81
2023/01/19 02:49:40;;;;;;;2.67;1.50;;;3.70;99.90;;;;;;4186465;28;20088;-82
2023/01/19 02:51:43;;;;;;;3.95;1.90;;;2.70;99.90;;;;;;4188079;28;20045;-82
2023/01/19 02:53:47;;;;;;;3.53;1.50;;;2.20;99.90;;;;;;4203910;28;20088;-82
2023/01/19 02:55:55;;;;;;;2.72;1.50;;;2.70;99.90;;;;;;4202637;28;20409;-81
2023/01/19 02:58:36;;;;;;;4.35;2.35;;;2.80;99.90;;;;;;4186914;28;20071;-82
2023/01/19 03:01:28;;;;;;;2.85;1.50;;;2.60;99.90;;;;;;4186608;28;20136;-81
2023/01/19 03:03:32;;;;;;;2.58;1.45;;;2.70;99.90;;;;;;4170151;28;20095;-81
2023/01/19 03:05:40;;;;;;;2.85;1.70;;;2.70;99.90;;;;;;4186541;28;20063;-81
2023/01/19 03:07:45;;;;;;;2.83;1.40;;;3.00;99.90;;;;;;4202491;28;20536;-82
2023/01/19 03:10:04;;;;;;;2.03;1.40;;;2.70;99.90;;;;;;4202383;28;20291;-82
2023/01/19 03:12:12;;;;;;;3.78;1.50;;;2.70;99.90;;;;;;4203707;28;20127;-82
2023/01/19 03:14:20;;;;;;;6.32;1.80;;;3.60;99.90;;;;;;4201295;28;20123;-81
2023/01/19 03:16:33;;;;;;;3.35;1.25;;;2.70;99.90;;;;;;4185118;28;20049;-82
2023/01/19 03:18:37;;;;;;;2.25;1.23;;;2.70;99.90;;;;;;4184856;28;20052;-82
2023/01/19 03:20:40;;;;;;;1.92;1.30;;;2.90;99.90;;;;;;4202263;28;20052;-82
2023/01/19 03:22:42;;;;;;;4.25;1.58;;;3.20;99.90;;;;;;4184791;28;20045;-82
2023/01/19 03:24:45;;;;;;;2.72;1.60;;;3.60;99.90;;;;;;4184426;28;20061;-82
2023/01/19 03:26:57;;;;;;;2.80;1.27;;;2.10;99.90;;;;;;4201551;28;20422;-82
2023/01/19 03:29:02;;;;;;;4.40;2.17;;;2.60;99.90;;;;;;4201079;28;20051;-82
2023/01/19 03:31:14;;;;;;;4.35;1.63;;;2.60;99.90;;;;;;4201324;28;20044;-81
2023/01/19 03:33:24;;;;;;;3.97;1.50;;;2.60;99.90;;;;;;4185118;28;20053;-82
2023/01/19 03:35:31;;;;;;;3.08;1.60;;;3.10;99.90;;;;;;4202254;28;20102;-81
2023/01/19 03:37:35;;;;;;;2.97;1.50;;;2.50;99.90;;;;;;4202688;28;20048;-81
2023/01/19 03:39:36;;;;;;;3.47;1.30;;;2.50;99.90;;;;;;4200941;28;20532;-82
2023/01/19 03:41:39;;;;;;;2.58;1.40;;;2.70;99.90;;;;;;4201075;28;20532;-82
2023/01/19 03:43:48;;;;;;;2.15;1.33;;;3.40;99.90;;;;;;4202170;28;20041;-82
2023/01/19 03:45:52;;;;;;;3.28;1.20;;;2.70;99.90;;;;;;4201645;28;20048;-82
2023/01/19 03:47:53;;;;;;;4.05;1.35;;;2.60;99.90;;;;;;4202239;28;20463;-81
2023/01/19 03:49:57;;;;;;;2.25;1.27;;;2.70;99.90;;;;;;4202878;28;20076;-81
2023/01/19 03:52:00;;;;;;;3.97;1.83;;;2.50;99.90;;;;;;4198534;28;20049;-82
2023/01/19 03:54:00;;;;;;;3.92;1.95;;;2.90;99.90;;;;;;4185405;28;20040;-82
2023/01/19 03:56:02;;;;;;;3.22;1.60;;;2.30;99.90;;;;;;4183730;28;20114;-82
2023/01/19 03:58:03;;;;;;;5.55;2.05;;;2.50;99.90;;;;;;4185537;28;20122;-81
2023/01/19 04:00:05;;;;;;;4.68;1.90;;;2.50;99.90;;;;;;4183884;28;20060;-82
2023/01/19 04:02:06;;;;;;;2.88;1.40;;;2.50;99.90;;;;;;4183794;28;20037;-81
2023/01/19 04:04:07;;;;;;;3.47;1.20;;;2.50;99.90;;;;;;4185347;28;20391;-82
2023/01/19 04:06:11;;;;;;;2.60;1.60;;;3.00;99.90;;;;;;4185664;28;20134;-81
2023/01/19 04:08:13;;;;;;;5.68;1.65;;;2.50;99.90;;;;;;4185242;28;20097;-81
2023/01/19 04:10:18;;;;;;;6.95;2.05;;;3.20;99.90;;;;;;4168009;28;20052;-81
2023/01/19 04:12:19;;;;;;;7.03;3.08;;;2.20;99.90;;;;;;4183865;28;20040;-82
2023/01/19 04:14:21;;;;;;;4.55;1.67;;;2.60;99.90;;;;;;4167084;28;20042;-82
2023/01/19 04:16:22;;;;;;;3.28;1.80;;;3.00;99.90;;;;;;4185575;28;20076;-82
2023/01/19 04:18:23;;;;;;;4.90;1.90;;;3.70;99.90;;;;;;4183898;28;20075;-82
2023/01/19 04:20:26;;;;;;;5.72;2.67;;;2.60;99.90;;;;;;4167099;28;20116;-81
2023/01/19 04:22:26;;;;;;;3.13;1.65;;;4.10;99.90;;;;;;4184818;28;20079;-82
2023/01/19 04:24:27;;;;;;;4.55;1.60;;;3.50;99.90;;;;;;4184084;28;20052;-82
2023/01/19 04:26:28;;;;;;;4.75;1.92;;;3.70;99.90;;;;;;4167123;28;20431;-82
2023/01/19 04:28:30;;;;;;;8.00;1.73;;;2.60;99.90;;;;;;4183849;28;20045;-82
2023/01/19 04:30:30;;;;;;;5.30;2.30;;;2.40;99.90;;;;;;4184756;28;20049;-82
2023/01/19 04:32:32;;;;;;;5.15;1.70;;;2.60;99.90;;;;;;4199278;28;20051;-82
2023/01/19 04:34:33;;;;;;;5.40;2.20;;;2.60;99.90;;;;;;4201431;28;20048;-82
2023/01/19 04:36:34;;;;;;;7.88;2.28;;;3.10;99.90;;;;;;4201780;28;20033;-82
2023/01/19 04:38:35;;;;;;;3.90;1.70;;;4.20;99.90;;;;;;4200991;28;20056;-82
2023/01/19 04:40:35;;;;;;;3.63;2.05;;;3.60;99.90;;;;;;4201391;28;20047;-82
2023/01/19 04:42:36;;;;;;;3.83;1.83;;;3.50;99.90;;;;;;4200002;28;20475;-82
2023/01/19 04:44:37;;;;;;;4.30;1.88;;;2.60;99.90;;;;;;4199621;28;20057;-82
2023/01/19 04:46:38;;;;;;;3.50;1.70;;;3.30;99.90;;;;;;4199075;28;20082;-82
2023/01/19 04:48:39;;;;;;;4.88;1.67;;;2.50;99.90;;;;;;4201237;28;20048;-81
2023/01/19 04:50:40;;;;;;;3.58;1.70;;;3.10;99.90;;;;;;4198865;28;20127;-82
2023/01/19 04:52:41;;;;;;;4.90;2.10;;;3.60;99.90;;;;;;4189825;28;20045;-81
2023/01/19 04:54:42;;;;;;;7.47;2.28;;;2.50;99.90;;;;;;4183275;28;20049;-81
2023/01/19 04:56:42;;;;;;;6.20;2.08;;;3.60;99.90;;;;;;4183831;28;20052;-81
2023/01/19 04:58:44;;;;;;;4.90;2.17;;;2.70;99.90;;;;;;4182878;28;20052;-81
2023/01/19 05:00:46;;;;;;;4.63;2.08;;;2.60;99.90;;;;;;4182832;28;20037;-81
2023/01/19 05:02:48;;;;;;;5.15;2.20;;;3.20;99.90;;;;;;4182617;28;20119;-81
2023/01/19 05:04:49;;;;;;;4.65;2.10;;;2.50;99.90;;;;;;4187526;28;20121;-81
2023/01/19 05:06:50;;;;;;;5.85;1.80;;;3.50;99.90;;;;;;4193873;28;20120;-81
2023/01/19 05:08:52;;;;;;;4.15;1.92;;;2.20;99.90;;;;;;4182794;28;20053;-81
2023/01/19 05:10:53;;;;;;;8.75;1.80;;;2.50;99.90;;;;;;4166005;28;20053;-81
2023/01/19 05:12:54;;;;;;;5.45;1.80;;;2.80;99.90;;;;;;4183675;28;20044;-81
2023/01/19 05:14:55;;;;;;;6.45;1.85;;;2.50;99.90;;;;;;4183980;28;20068;-81
2023/01/19 05:16:56;;;;;;;9.15;2.00;;;3.10;99.90;;;;;;4182656;28;20044;-81
2023/01/19 05:18:58;;;;;;;8.02;2.38;;;2.50;99.90;;;;;;4182373;28;20049;-81
2023/01/19 05:21:01;;;;;;;4.90;2.20;;;3.60;99.90;;;;;;4166361;28;20096;-81
2023/01/19 05:23:01;;;;;;;7.05;1.80;;;3.50;99.90;;;;;;4172492;28;20052;-81
2023/01/19 05:25:04;;;;;;;3.95;1.75;;;2.50;99.90;;;;;;4200665;28;20084;-81
2023/01/19 05:27:05;;;;;;;3.53;2.00;;;2.50;99.90;;;;;;4203402;28;20048;-81
2023/01/19 05:29:07;;;;;;;7.45;1.52;;;1.90;99.90;;;;;;4203505;28;20072;-81
2023/01/19 05:31:07;;;;;;;4.07;1.67;;;2.50;99.90;;;;;;4185776;28;20052;-81
2023/01/19 05:33:08;;;;;;;2.35;1.00;;;2.50;99.90;;;;;;4185683;28;20052;-81
2023/01/19 05:35:09;;;;;;;6.85;1.10;;;3.80;99.90;;;;;;4202227;28;20088;-81
2023/01/19 05:37:10;;;;;;;2.55;1.23;;;2.30;99.90;;;;;;4203784;28;20186;-81
2023/01/19 05:39:12;;;;;;;4.10;0.90;;;3.70;99.90;;;;;;4202173;28;20048;-81
2023/01/19 05:41:13;;;;;;;4.85;1.23;;;2.60;99.90;;;;;;4203183;28;20048;-79
2023/01/19 05:43:15;;;;;;;3.55;1.02;;;2.90;99.90;;;;;;4201706;28;20047;-81
2023/01/19 05:45:16;;;;;;;3.25;1.23;;;2.60;99.90;;;;;;4203800;28;20049;-79
2023/01/19 05:47:17;;;;;;;5.05;0.90;;;2.60;99.90;;;;;;4203018;28;20052;-82
2023/01/19 05:49:18;;;;;;;2.65;0.73;;;2.60;99.90;;;;;;4204823;28;20591;-80
2023/01/19 05:51:18;;;;;;;3.72;0.98;;;2.60;99.90;;;;;;4202845;28;20083;-80
2023/01/19 05:53:20;;;;;;;2.13;0.55;;;2.70;99.90;;;;;;4202382;28;20131;-80
2023/01/19 05:55:21;;;;;;;2.75;0.68;;;2.60;99.90;;;;;;4203201;28;20485;-80
2023/01/19 05:57:22;;;;;;;3.53;0.68;;;3.40;99.90;;;;;;4202785;28;20071;-80
2023/01/19 05:59:23;;;;;;;4.18;0.52;;;2.40;99.90;;;;;;4201542;28;20496;-81
2023/01/19 06:01:26;;;;;;;3.28;0.28;;;3.60;99.90;;;;;;4202373;28;20048;-80
2023/01/19 06:03:28;;;;;;;7.25;1.15;;;2.60;99.90;;;;;;4184576;28;20053;-81
2023/01/19 06:05:29;;;;;;;2.92;0.47;;;3.70;99.90;;;;;;4200293;28;20536;-80
2023/01/19 06:07:30;;;;;;;7.05;0.70;;;2.60;99.90;;;;;;4184103;28;20045;-81
2023/01/19 06:09:32;;;;;;;1.05;0.50;;;3.30;99.90;;;;;;4184634;28;20041;-80
2023/01/19 06:11:34;;;;;;;4.50;1.02;;;2.70;99.90;;;;;;4201110;28;20420;-80
2023/01/19 06:13:40;;;;;;;1.85;0.35;;;3.00;99.90;;;;;;4200609;28;20044;-80
2023/01/19 06:15:43;;;;;;;1.45;0.40;;;2.70;99.90;;;;;;4183296;28;20091;-81
2023/01/19 06:17:44;;;;;;;3.72;1.10;;;2.70;99.90;;;;;;4200484;28;20107;-81
2023/01/19 06:19:46;;;;;;;4.25;0.60;;;2.60;99.90;;;;;;4182312;28;20045;-80
2023/01/19 06:21:48;;;;;;;3.25;0.22;;;2.80;99.90;;;;;;4201130;28;20052;-80
2023/01/19 06:23:49;;;;;;;2.08;0.30;;;2.80;99.90;;;;;;4201358;28;20417;-80
2023/01/19 06:25:50;;;;;;;2.45;0.43;;;3.80;99.90;;;;;;4199629;28;20052;-81
2023/01/19 06:27:51;;;;;;;4.85;0.68;;;4.20;99.90;;;;;;4185569;28;20049;-81
2023/01/19 06:29:52;;;;;;;2.42;0.40;;;3.50;99.90;;;;;;4185234;28;20414;-81
2023/01/19 06:31:53;;;;;;;3.42;0.70;;;2.90;99.90;;;;;;4185369;28;20045;-81
2023/01/19 06:33:55;;;;;;;9.27;0.60;;;2.90;99.90;;;;;;4177243;28;20044;-82
2023/01/19 06:35:56;;;;;;;4.63;0.40;;;2.90;99.90;;;;;;4197517;28;20045;-82
2023/01/19 06:37:57;;;;;;;5.50;1.00;;;2.90;99.90;;;;;;4192619;28;20051;-81
2023/01/19 06:39:57;;;;;;;2.90;0.60;;;2.90;99.90;;;;;;4192017;28;20044;-81
2023/01/19 06:41:58;;;;;;;7.80;0.70;;;2.70;99.90;;;;;;4196923;28;20044;-82
2023/01/19 06:43:59;;;;;;;5.78;0.68;;;3.40;99.90;;;;;;4186075;28;20553;-81
2023/01/19 06:46:00;;;;;;;6.18;0.98;;;3.00;99.90;;;;;;4183834;28;20049;-82
2023/01/19 06:48:03;;;;;;;6.57;1.08;;;2.90;99.90;;;;;;4184943;28;20044;-81
2023/01/19 06:50:04;;;;;;;9.90;1.00;;;3.00;99.90;;;;;;4185429;28;20406;-81
2023/01/19 06:52:10;;;;;;;4.68;0.77;;;2.90;99.90;;;;;;4201384;28;20044;-81
2023/01/19 06:54:10;;;;;;;3.92;0.70;;;3.30;99.90;;;;;;4201037;28;20074;-81
2023/01/19 06:56:12;;;;;;;1.08;0.47;;;3.30;99.90;;;;;;4183467;28;20136;-81
2023/01/19 06:58:14;;;;;;;1.52;0.52;;;3.70;99.90;;;;;;4177903;28;20071;-81
2023/01/19 07:00:15;;;;;;;3.40;1.42;;;4.00;99.90;;;;;;4199950;28;20049;-81
2023/01/19 07:02:19;;;;;;;6.13;0.75;;;2.90;99.90;;;;;;4200564;28;20049;-81
2023/01/19 07:04:19;;;;;;;4.05;0.70;;;3.40;99.90;;;;;;4201443;28;20082;-81
2023/01/19 07:06:20;;;;;;;8.18;1.00;;;3.80;99.90;;;;;;4198051;28;20053;-81
2023/01/19 07:08:21;;;;;;;11.07;0.90;;;3.50;99.90;;;;;;4188760;28;20517;-81
2023/01/19 07:10:23;;;;;;;7.38;1.00;;;2.90;99.90;;;;;;4200604;28;20473;-81
2023/01/19 07:12:25;;;;;;;4.55;0.65;;;2.60;99.90;;;;;;4197392;28;20095;-81
2023/01/19 07:14:32;;;;;;;5.38;2.20;;;2.90;99.90;;;;;;4186117;28;20044;-81
2023/01/19 07:16:33;;;;;;;10.93;0.68;;;3.50;99.90;;;;;;4200512;28;20055;-80
2023/01/19 07:18:36;;;;;;;7.53;0.70;;;2.90;99.90;;;;;;4200405;28;20083;-81
2023/01/19 07:20:37;;;;;;;11.10;0.85;;;2.90;99.90;;;;;;4183524;28;20076;-81
2023/01/19 07:22:40;;;;;;;9.05;0.98;;;3.60;99.90;;;;;;4199955;28;20107;-81
2023/01/19 07:24:41;;;;;;;4.97;0.82;;;2.90;99.90;;;;;;4200966;28;20407;-81
2023/01/19 07:26:43;;;;;;;5.05;0.55;;;2.90;99.90;;;;;;4200852;28;20116;-81
2023/01/19 07:28:43;;;;;;;4.25;0.50;;;3.00;99.90;;;;;;4200281;28;20049;-81
2023/01/19 07:30:47;;;;;;;7.82;1.33;;;4.10;99.90;;;;;;4183695;28;20045;-81
2023/01/19 07:32:47;;;;;;;2.83;0.85;;;3.00;99.90;;;;;;4200316;28;20040;-81
2023/01/19 07:34:48;;;;;;;8.27;1.20;;;2.80;99.90;;;;;;4200482;28;20072;-82
2023/01/19 07:36:49;;;;;;;3.83;0.70;;;4.00;99.90;;;;;;4199950;28;20082;-81
2023/01/19 07:38:50;;;;;;;12.63;1.40;;;2.60;99.90;;;;;;4201150;28;20045;-81
2023/01/19 07:40:51;;;;;;;4.20;0.55;;;2.90;99.90;;;;;;4198028;28;20040;-81
2023/01/19 07:42:54;;;;;;;3.78;0.57;;;2.20;99.90;;;;;;4200752;28;20102;-81
2023/01/19 07:44:54;;;;;;;4.68;0.98;;;2.60;99.90;;;;;;4199559;28;20575;-81
2023/01/19 07:46:55;;;;;;;11.38;1.00;;;2.90;99.90;;;;;;4201361;28;20041;-82
2023/01/19 07:49:03;;;;;;;7.93;1.83;;;2.70;99.90;;;;;;4200421;28;20047;-81
2023/01/19 07:51:07;;;;;;;7.88;1.52;;;3.00;99.90;;;;;;4199691;28;20412;-81
2023/01/19 07:53:08;;;;;;;17.45;1.73;;;3.00;99.90;;;;;;4183059;28;20053;-81
2023/01/19 07:55:09;;;;;;;5.10;1.00;;;4.00;99.90;;;;;;4182583;28;20067;-81
2023/01/19 07:57:11;;;;;;;17.45;1.95;;;3.10;99.90;;;;;;4200758;28;20048;-81
2023/01/19 07:59:11;;;;;;;8.15;1.88;;;4.40;99.90;;;;;;4199908;28;20119;-81
2023/01/19 08:01:13;;;;;;;13.07;1.25;;;3.10;99.90;;;;;;4200175;28;20098;-82
2023/01/19 08:03:13;;;;;;;7.75;0.93;;;3.20;99.90;;;;;;4199505;28;20045;-82
2023/01/19 08:05:16;;;;;;;9.27;1.60;;;3.20;99.90;;;;;;4200303;28;20090;-82
2023/01/19 08:07:18;;;;;;;8.02;1.27;;;3.20;99.90;;;;;;4195311;28;20059;-82
2023/01/19 08:09:20;;;;;;;5.80;1.00;;;3.20;99.90;;;;;;4175089;28;20045;-81
2023/01/19 08:11:21;;;;;;;9.00;1.08;;;3.20;99.90;;;;;;4197562;28;20051;-81
2023/01/19 08:13:23;;;;;;;10.88;1.35;;;3.80;99.90;;;;;;4198420;28;20040;-81
2023/01/19 08:15:24;;;;;;;10.18;0.90;;;3.30;99.90;;;;;;4200640;28;20043;-81
2023/01/19 08:17:25;;;;;;;6.25;1.83;;;3.20;99.90;;;;;;4182183;28;20493;-81
2023/01/19 08:19:27;;;;;;;11.27;1.95;;;3.20;99.90;;;;;;4196392;28;20043;-81
2023/01/19 08:21:27;;;;;;;11.30;0.73;;;4.00;99.90;;;;;;4174876;28;20520;-82
2023/01/19 08:23:29;;;;;;;2.80;0.65;;;3.20;99.90;;;;;;4193071;28;20044;-81
2023/01/19 08:25:34;;;;;;;12.38;1.35;;;4.10;99.90;;;;;;4176396;28;20512;-82
2023/01/19 08:27:36;;;;;;;7.13;1.02;;;3.20;99.90;;;;;;4190865;28;20047;-81
2023/01/19 08:29:37;;;;;;;10.75;0.80;;;3.20;99.90;;;;;;4198045;28;20048;-81
2023/01/19 08:31:38;;;;;;;11.95;1.17;;;3.60;99.90;;;;;;4198094;28;20090;-81
2023/01/19 08:33:40;;;;;;;7.25;1.08;;;4.00;99.90;;;;;;4197386;28;20044;-82
2023/01/19 08:35:49;;;;;;;7.95;1.40;;;3.10;99.90;;;;;;4181766;28;20044;-82
2023/01/19 08:37:50;;;;;;;10.90;1.17;;;3.40;99.90;;;;;;4197725;28;20048;-81
2023/01/19 08:39:52;;;;;;;7.75;1.20;;;3.40;99.90;;;;;;4193188;28;20044;-81
2023/01/19 08:41:53;;;;;;;10.48;1.15;;;3.50;99.90;;;;;;4196601;28;20071;-82
2023/01/19 08:43:54;;;;;;;9.80;1.40;;;3.70;99.90;;;;;;4198775;28;20040;-82
2023/01/19 08:45:55;;;;;;;8.75;0.85;;;3.50;99.90;;;;;;4198817;28;20067;-82
2023/01/19 08:47:59;;;;;;;6.22;1.10;;;3.50;99.90;;;;;;4180800;28;20095;-82
2023/01/19 08:50:02;;;;;;;6.80;0.80;;;3.70;99.90;;;;;;4197820;28;20370;-82
2023/01/19 08:52:04;;;;;;;9.98;1.63;;;4.00;99.90;;;;;;4199067;28;20116;-82
2023/01/19 08:54:04;;;;;;;9.90;0.98;;;4.10;99.90;;;;;;4197566;28;20587;-82
2023/01/19 08:56:11;;;;;;;10.90;1.10;;;4.70;99.90;;;;;;4179676;28;20061;-81
2023/01/19 08:58:11;;;;;;;15.63;1.30;;;5.00;99.90;;;;;;4186518;28;20469;-81
2023/01/19 09:00:13;;;;;;;8.25;1.52;;;5.30;99.90;;;;;;4198167;28;20047;-81
2023/01/19 09:02:13;;;;;;;11.38;1.30;;;5.50;99.90;;;;;;4201013;28;20068;-81
2023/01/19 09:04:14;;;;;;;4.78;0.95;;;5.60;99.90;;;;;;4196478;28;20102;-81
2023/01/19 09:06:17;;;;;;;6.95;0.93;;;5.50;99.90;;;;;;4201140;28;20043;-81
2023/01/19 09:08:18;;;;;;;8.73;1.48;;;5.80;99.90;;;;;;4200512;28;20040;-81
2023/01/19 09:10:19;;;;;;;7.75;1.25;;;5.70;99.90;;;;;;4201328;28;20489;-81
2023/01/19 09:12:21;;;;;;;9.32;1.48;;;5.70;99.90;;;;;;4201807;28;20032;-81
2023/01/19 09:14:22;;;;;;;6.18;0.80;;;6.00;99.90;;;;;;4202156;28;20044;-81
2023/01/19 09:16:25;;;;;;;10.68;1.60;;;6.20;99.90;;;;;;4201578;28;20044;-81
2023/01/19 09:18:26;;;;;;;9.77;1.98;;;6.30;99.90;;;;;;4190529;28;20494;-81
2023/01/19 09:20:29;;;;;;;17.05;1.73;;;6.40;99.90;;;;;;4203443;28;20044;-79
2023/01/19 09:22:31;;;;;;;13.70;2.63;;;6.10;99.90;;;;;;4195355;28;20040;-81
2023/01/19 09:24:33;;;;;;;6.88;1.02;;;6.00;99.90;;;;;;4203710;28;20041;-81
2023/01/19 09:26:35;;;;;;;8.60;1.85;;;5.70;99.90;;;;;;4202925;28;20518;-81
2023/01/19 09:28:37;;;;;;;5.60;1.27;;;5.40;99.90;;;;;;4202835;28;20072;-81
2023/01/19 09:30:40;;;;;;;9.38;0.98;;;5.30;99.90;;;;;;4202777;28;20086;-79
2023/01/19 09:32:41;;;;;;;5.22;1.83;;;4.90;99.90;;;;;;4203196;28;20537;-80
2023/01/19 09:34:42;;;;;;;9.32;1.95;;;5.20;99.90;;;;;;4204462;28;20068;-80
2023/01/19 09:36:45;;;;;;;6.72;1.00;;;5.50;99.90;;;;;;4202425;28;20054;-81
2023/01/19 09:38:45;;;;;;;15.90;2.47;;;4.50;99.90;;;;;;4204256;28;20032;-81
2023/01/19 09:40:53;;;;;;;13.40;1.60;;;4.50;99.90;;;;;;4202595;28;20111;-81
2023/01/19 09:43:06;;;;;;;10.63;1.20;;;4.50;99.90;;;;;;4201643;28;20048;-81
2023/01/19 09:45:17;;;;;;;8.02;1.67;;;4.70;99.90;;;;;;4201547;28;20045;-81
2023/01/19 09:47:23;;;;;;;11.55;1.27;;;5.40;99.90;;;;;;4201433;28;20032;-81
2023/01/19 09:49:33;;;;;;;9.52;1.23;;;6.00;99.90;;;;;;4201114;28;20202;-81
2023/01/19 09:51:39;;;;;;;13.98;1.00;;;6.60;99.90;;;;;;4201194;28;20048;-83
2023/01/19 09:54:09;;;;;;;8.68;0.93;;;7.30;99.90;;;;;;4200991;28;20055;-81
2023/01/19 09:56:14;;;;;;;11.43;1.30;;;8.30;99.90;;;;;;4199296;28;20059;-81
2023/01/19 09:58:17;;;;;;;5.85;0.77;;;9.00;99.90;;;;;;4199167;28;20053;-81
2023/01/19 10:00:21;;;;;;;9.43;1.85;;;9.40;99.90;;;;;;4197322;28;20128;-81
2023/01/19 10:02:35;;;;;;;10.57;1.80;;;9.80;99.90;;;;;;4197454;28;20128;-82
2023/01/19 10:04:36;;;;;;;7.63;0.82;;;9.90;99.90;;;;;;4194216;28;20048;-81
2023/01/19 10:06:37;;;;;;;6.40;0.95;;;9.80;99.90;;;;;;4199334;28;20500;-82
2023/01/19 10:08:38;;;;;;;7.53;1.10;;;9.50;99.90;;;;;;4198845;28;20080;-81
2023/01/19 10:10:44;;;;;;;4.30;0.70;;;9.40;99.90;;;;;;4198744;28;20427;-82
2023/01/19 10:12:44;;;;;;;6.03;0.70;;;9.30;99.90;;;;;;4193136;28;20051;-82
2023/01/19 10:15:00;;;;;;;6.00;1.00;;;9.10;99.90;;;;;;4197660;28;20044;-82
2023/01/19 10:17:33;;;;;;;3.00;0.80;;;8.70;99.90;;;;;;4197572;28;20483;-82
2023/01/19 10:19:43;;;;;;;10.10;2.03;;;8.50;99.90;;;;;;4190499;28;20519;-81
2023/01/19 10:21:45;;;;;;;7.15;1.15;;;8.20;99.90;;;;;;4193373;28;20456;-82
2023/01/19 10:23:51;;;;;;;8.55;2.05;;;8.20;99.90;;;;;;4199340;28;20050;-81
2023/01/19 10:25:53;;;;;;;8.98;1.52;;;8.00;99.90;;;;;;4198985;28;20536;-81
2023/01/19 10:27:54;;;;;;;4.75;0.80;;;8.10;99.90;;;;;;4199095;28;20489;-81
2023/01/19 10:29:56;;;;;;;4.93;0.90;;;8.10;99.90;;;;;;4198254;28;20076;-82
2023/01/19 10:32:07;;;;;;;3.10;0.82;;;8.10;99.90;;;;;;4198918;28;20115;-82
2023/01/19 10:34:16;;;;;;;8.48;1.48;;;8.30;99.90;;;;;;4198649;28;20119;-82
2023/01/19 10:36:20;;;;;;;7.78;1.25;;;8.40;99.90;;;;;;4198921;28;20033;-82
2023/01/19 10:38:21;;;;;;;2.78;0.80;;;8.60;99.90;;;;;;4196991;28;20045;-83
2023/01/19 10:40:32;;;;;;;11.32;1.63;;;8.70;99.90;;;;;;4198928;28;20085;-82
2023/01/19 10:42:33;;;;;;;5.78;0.98;;;8.80;99.90;;;;;;4198682;28;20044;-82
2023/01/19 10:44:36;;;;;;;10.18;1.35;;;8.90;99.90;;;;;;4198759;28;20040;-82
2023/01/19 10:46:45;;;;;;;11.00;1.70;;;8.90;99.90;;;;;;4199260;28;20170;-82
2023/01/19 10:48:49;;;;;;;7.07;1.23;;;9.00;99.90;;;;;;4199167;28;20050;-82
2023/01/19 10:51:03;;;;;;;6.78;0.98;;;9.00;99.90;;;;;;4198243;28;20398;-82
2023/01/19 10:53:16;;;;;;;7.47;1.35;;;9.00;99.90;;;;;;4199223;28;20396;-82
2023/01/19 10:56:08;;;;;;;6.28;1.15;;;9.00;99.90;;;;;;4158814;28;1129475;-83
2023/01/19 10:58:27;;;;;;;7.57;1.10;;;9.20;99.90;;;;;;4173569;28;20045;-83